sensor_id;sensor_type;location;lat;lon;timestamp;pressure;altitude;pressure_sealevel;temperature;humidity
36454;BME280;22478;51.740;-1.314;2023-01-25T00:01:54;102435.65;;;-1.01;98.48
36454;BME280;22478;51.740;-1.314;2023-01-25T00:04:22;102443.60;;;-5.90;100.00
36454;BME280;22478;51.740;-1.314;2023-01-25T00:06:50;102437.00;;;-3.20;100.00
36454;BME280;22478;51.740;-1.314;2023-01-25T00:09:18;102446.06;;;-6.68;100.00
36454;BME280;22478;51.740;-1.314;2023-01-25T00:11:46;102428.82;;;-2.24;100.00
36454;BME280;22478;51.740;-1.314;2023-01-25T00:14:14;102433.95;;;-3.84;100.00
36454;BME280;22478;51.740;-1.314;2023-01-25T00:16:41;102438.19;;;-5.63;100.00
36454;BME280;22478;51.740;-1.314;2023-01-25T00:19:09;102449.95;;;-8.96;100.00
36454;BME280;22478;51.740;-1.314;2023-01-25T00:21:37;102454.33;;;-8.41;100.00
36454;BME280;22478;51.740;-1.314;2023-01-25T00:24:05;102447.23;;;-8.97;100.00
36454;BME280;22478;51.740;-1.314;2023-01-25T00:26:34;102445.52;;;-7.98;100.00
36454;BME280;22478;51.740;-1.314;2023-01-25T00:29:02;102440.50;;;-8.20;100.00
36454;BME280;22478;51.740;-1.314;2023-01-25T00:31:37;102432.01;;;-5.88;100.00
36454;BME280;22478;51.740;-1.314;2023-01-25T00:34:38;102443.87;;;-7.58;100.00
36454;BME280;22478;51.740;-1.314;2023-01-25T00:37:18;102430.01;;;-6.19;100.00
36454;BME280;22478;51.740;-1.314;2023-01-25T00:39:45;102440.94;;;-7.28;100.00
36454;BME280;22478;51.740;-1.314;2023-01-25T00:42:13;102437.90;;;-7.15;100.00
36454;BME280;22478;51.740;-1.314;2023-01-25T00:44:40;102432.76;;;-4.76;100.00
36454;BME280;22478;51.740;-1.314;2023-01-25T00:47:09;102430.25;;;-3.42;100.00
36454;BME280;22478;51.740;-1.314;2023-01-25T00:49:37;102427.57;;;-3.00;100.00
36454;BME280;22478;51.740;-1.314;2023-01-25T00:52:06;102426.19;;;-4.24;100.00
36454;BME280;22478;51.740;-1.314;2023-01-25T00:54:34;102430.17;;;-3.24;100.00
36454;BME280;22478;51.740;-1.314;2023-01-25T00:57:01;102428.67;;;-4.54;100.00
36454;BME280;22478;51.740;-1.314;2023-01-25T00:59:30;102430.08;;;-2.86;100.00
36454;BME280;22478;51.740;-1.314;2023-01-25T01:01:57;102437.25;;;-5.75;100.00
36454;BME280;22478;51.740;-1.314;2023-01-25T01:04:24;102440.84;;;-6.61;100.00
36454;BME280;22478;51.740;-1.314;2023-01-25T01:06:53;102437.28;;;-5.51;100.00
36454;BME280;22478;51.740;-1.314;2023-01-25T01:09:21;102431.93;;;-2.76;100.00
36454;BME280;22478;51.740;-1.314;2023-01-25T01:11:49;102418.60;;;-1.57;100.00
36454;BME280;22478;51.740;-1.314;2023-01-25T01:14:17;102418.66;;;-3.44;100.00
36454;BME280;22478;51.740;-1.314;2023-01-25T01:16:45;102412.28;;;-2.00;100.00
36454;BME280;22478;51.740;-1.314;2023-01-25T01:19:13;102411.79;;;-1.72;100.00
36454;BME280;22478;51.740;-1.314;2023-01-25T01:21:41;102408.52;;;-2.14;100.00
36454;BME280;22478;51.740;-1.314;2023-01-25T01:24:09;102404.05;;;-1.36;100.00
36454;BME280;22478;51.740;-1.314;2023-01-25T01:26:36;102407.83;;;-1.30;100.00
36454;BME280;22478;51.740;-1.314;2023-01-25T01:29:04;102409.39;;;-2.45;100.00
36454;BME280;22478;51.740;-1.314;2023-01-25T01:31:32;102419.59;;;-3.62;100.00
36454;BME280;22478;51.740;-1.314;2023-01-25T01:33:58;102414.79;;;-3.07;100.00
36454;BME280;22478;51.740;-1.314;2023-01-25T01:36:28;102422.87;;;-3.84;100.00
36454;BME280;22478;51.740;-1.314;2023-01-25T01:38:57;102419.57;;;-5.03;100.00
36454;BME280;22478;51.740;-1.314;2023-01-25T01:41:25;102413.31;;;-3.98;100.00
36454;BME280;22478;51.740;-1.314;2023-01-25T01:43:52;102418.17;;;-4.34;100.00
36454;BME280;22478;51.740;-1.314;2023-01-25T01:46:22;102417.00;;;-3.10;100.00
36454;BME280;22478;51.740;-1.314;2023-01-25T01:48:54;102413.19;;;-5.46;100.00
36454;BME280;22478;51.740;-1.314;2023-01-25T01:51:26;102403.19;;;-2.42;100.00
36454;BME280;22478;51.740;-1.314;2023-01-25T01:54:04;102406.64;;;-1.84;100.00
36454;BME280;22478;51.740;-1.314;2023-01-25T01:56:36;102412.02;;;-3.17;100.00
36454;BME280;22478;51.740;-1.314;2023-01-25T01:59:07;102418.37;;;-4.65;100.00
36454;BME280;22478;51.740;-1.314;2023-01-25T02:01:36;102420.51;;;-5.90;100.00
36454;BME280;22478;51.740;-1.314;2023-01-25T02:04:04;102426.36;;;-6.24;100.00
36454;BME280;22478;51.740;-1.314;2023-01-25T02:06:39;102422.94;;;-4.39;100.00
36454;BME280;22478;51.740;-1.314;2023-01-25T02:09:08;102420.99;;;-5.04;100.00
36454;BME280;22478;51.740;-1.314;2023-01-25T02:11:36;102426.84;;;-5.81;100.00
36454;BME280;22478;51.740;-1.314;2023-01-25T02:14:05;102433.77;;;-7.69;100.00
36454;BME280;22478;51.740;-1.314;2023-01-25T02:16:33;102436.12;;;-6.52;100.00
36454;BME280;22478;51.740;-1.314;2023-01-25T02:19:01;102438.42;;;-7.32;100.00
36454;BME280;22478;51.740;-1.314;2023-01-25T02:21:34;102439.76;;;-8.10;100.00
36454;BME280;22478;51.740;-1.314;2023-01-25T02:24:08;102443.08;;;-7.91;100.00
36454;BME280;22478;51.740;-1.314;2023-01-25T02:26:38;102443.39;;;-7.89;100.00
36454;BME280;22478;51.740;-1.314;2023-01-25T02:29:06;102434.97;;;-7.05;100.00
36454;BME280;22478;51.740;-1.314;2023-01-25T02:31:34;102429.46;;;-5.45;100.00
36454;BME280;22478;51.740;-1.314;2023-01-25T02:34:02;102437.23;;;-6.78;100.00
36454;BME280;22478;51.740;-1.314;2023-01-25T02:36:30;102431.11;;;-5.01;100.00
36454;BME280;22478;51.740;-1.314;2023-01-25T02:39:01;102431.95;;;-7.44;100.00
36454;BME280;22478;51.740;-1.314;2023-01-25T02:41:32;102422.64;;;-5.94;100.00
36454;BME280;22478;51.740;-1.314;2023-01-25T02:44:00;102420.84;;;-7.14;100.00
36454;BME280;22478;51.740;-1.314;2023-01-25T02:46:30;102413.53;;;-6.02;100.00
36454;BME280;22478;51.740;-1.314;2023-01-25T02:48:59;102403.14;;;-5.19;100.00
36454;BME280;22478;51.740;-1.314;2023-01-25T02:51:29;102398.75;;;-5.12;100.00
36454;BME280;22478;51.740;-1.314;2023-01-25T02:53:57;102405.54;;;-7.05;100.00
36454;BME280;22478;51.740;-1.314;2023-01-25T02:56:25;102396.52;;;-3.84;100.00
36454;BME280;22478;51.740;-1.314;2023-01-25T02:58:52;102391.63;;;-4.22;100.00
36454;BME280;22478;51.740;-1.314;2023-01-25T03:01:20;102387.15;;;-5.19;100.00
36454;BME280;22478;51.740;-1.314;2023-01-25T03:03:47;102392.20;;;-6.12;100.00
36454;BME280;22478;51.740;-1.314;2023-01-25T03:06:14;102386.30;;;-3.32;100.00
36454;BME280;22478;51.740;-1.314;2023-01-25T03:08:42;102385.40;;;-4.71;100.00
36454;BME280;22478;51.740;-1.314;2023-01-25T03:11:09;102391.96;;;-5.57;100.00
36454;BME280;22478;51.740;-1.314;2023-01-25T03:13:36;102387.39;;;-4.80;100.00
36454;BME280;22478;51.740;-1.314;2023-01-25T03:16:06;102393.59;;;-6.12;100.00
36454;BME280;22478;51.740;-1.314;2023-01-25T03:18:34;102389.82;;;-5.33;100.00
36454;BME280;22478;51.740;-1.314;2023-01-25T03:21:06;102381.99;;;-5.02;100.00
36454;BME280;22478;51.740;-1.314;2023-01-25T03:23:34;102384.58;;;-5.09;100.00
36454;BME280;22478;51.740;-1.314;2023-01-25T03:26:07;102390.83;;;-6.87;100.00
36454;BME280;22478;51.740;-1.314;2023-01-25T03:28:34;102391.96;;;-6.56;100.00
36454;BME280;22478;51.740;-1.314;2023-01-25T03:31:02;102388.41;;;-4.35;100.00
36454;BME280;22478;51.740;-1.314;2023-01-25T03:33:29;102390.14;;;-5.37;100.00
36454;BME280;22478;51.740;-1.314;2023-01-25T03:35:57;102394.20;;;-6.68;100.00
36454;BME280;22478;51.740;-1.314;2023-01-25T03:38:25;102388.34;;;-4.48;100.00
36454;BME280;22478;51.740;-1.314;2023-01-25T03:40:53;102393.95;;;-7.32;100.00
36454;BME280;22478;51.740;-1.314;2023-01-25T03:43:20;102399.15;;;-8.81;100.00
36454;BME280;22478;51.740;-1.314;2023-01-25T03:45:51;102400.92;;;-8.96;100.00
36454;BME280;22478;51.740;-1.314;2023-01-25T03:48:18;102387.41;;;-5.82;100.00
36454;BME280;22478;51.740;-1.314;2023-01-25T03:50:50;102385.57;;;-6.40;100.00
36454;BME280;22478;51.740;-1.314;2023-01-25T03:53:18;102376.67;;;-4.41;100.00
36454;BME280;22478;51.740;-1.314;2023-01-25T03:55:45;102377.31;;;-4.72;100.00
36454;BME280;22478;51.740;-1.314;2023-01-25T03:58:12;102379.02;;;-6.50;100.00
36454;BME280;22478;51.740;-1.314;2023-01-25T04:00:40;102375.22;;;-4.68;100.00
36454;BME280;22478;51.740;-1.314;2023-01-25T04:03:07;102379.09;;;-6.22;100.00
36454;BME280;22478;51.740;-1.314;2023-01-25T04:05:34;102369.50;;;-3.86;100.00
36454;BME280;22478;51.740;-1.314;2023-01-25T04:08:02;102379.40;;;-7.24;100.00
36454;BME280;22478;51.740;-1.314;2023-01-25T04:10:29;102375.38;;;-3.80;100.00
36454;BME280;22478;51.740;-1.314;2023-01-25T04:12:56;102379.10;;;-4.01;100.00
36454;BME280;22478;51.740;-1.314;2023-01-25T04:15:23;102373.75;;;-2.99;100.00
36454;BME280;22478;51.740;-1.314;2023-01-25T04:17:50;102376.58;;;-4.14;100.00
36454;BME280;22478;51.740;-1.314;2023-01-25T04:20:17;102379.48;;;-5.63;100.00
36454;BME280;22478;51.740;-1.314;2023-01-25T04:22:44;102385.92;;;-5.79;100.00
36454;BME280;22478;51.740;-1.314;2023-01-25T04:25:12;102384.09;;;-3.23;100.00
36454;BME280;22478;51.740;-1.314;2023-01-25T04:27:39;102384.97;;;-3.92;100.00
36454;BME280;22478;51.740;-1.314;2023-01-25T04:30:08;102378.06;;;-3.12;100.00
36454;BME280;22478;51.740;-1.314;2023-01-25T04:32:35;102388.23;;;-4.79;100.00
36454;BME280;22478;51.740;-1.314;2023-01-25T04:35:03;102390.04;;;-4.97;100.00
36454;BME280;22478;51.740;-1.314;2023-01-25T04:37:29;102385.67;;;-3.30;100.00
36454;BME280;22478;51.740;-1.314;2023-01-25T04:39:56;102384.24;;;-4.66;100.00
36454;BME280;22478;51.740;-1.314;2023-01-25T04:42:23;102380.35;;;-4.92;100.00
36454;BME280;22478;51.740;-1.314;2023-01-25T04:44:50;102381.21;;;-4.12;100.00
36454;BME280;22478;51.740;-1.314;2023-01-25T04:47:18;102373.39;;;-3.10;100.00
36454;BME280;22478;51.740;-1.314;2023-01-25T04:49:45;102368.52;;;-2.45;100.00
36454;BME280;22478;51.740;-1.314;2023-01-25T04:52:12;102364.33;;;-2.42;100.00
36454;BME280;22478;51.740;-1.314;2023-01-25T04:54:39;102361.69;;;-1.62;100.00
36454;BME280;22478;51.740;-1.314;2023-01-25T04:57:06;102356.58;;;-2.15;100.00
36454;BME280;22478;51.740;-1.314;2023-01-25T04:59:33;102365.86;;;-2.33;100.00
36454;BME280;22478;51.740;-1.314;2023-01-25T05:02:00;102367.58;;;-3.00;100.00
36454;BME280;22478;51.740;-1.314;2023-01-25T05:04:27;102372.59;;;-3.38;100.00
36454;BME280;22478;51.740;-1.314;2023-01-25T05:06:54;102375.42;;;-3.63;100.00
36454;BME280;22478;51.740;-1.314;2023-01-25T05:09:21;102378.39;;;-5.97;100.00
36454;BME280;22478;51.740;-1.314;2023-01-25T05:11:49;102371.46;;;-3.05;100.00
36454;BME280;22478;51.740;-1.314;2023-01-25T05:14:16;102362.83;;;-3.66;100.00
36454;BME280;22478;51.740;-1.314;2023-01-25T05:16:43;102356.37;;;-3.11;100.00
36454;BME280;22478;51.740;-1.314;2023-01-25T05:19:10;102352.98;;;-2.90;100.00
36454;BME280;22478;51.740;-1.314;2023-01-25T05:21:37;102348.42;;;-3.36;100.00
36454;BME280;22478;51.740;-1.314;2023-01-25T05:24:04;102342.92;;;-3.56;100.00
36454;BME280;22478;51.740;-1.314;2023-01-25T05:26:32;102340.96;;;-3.25;100.00
36454;BME280;22478;51.740;-1.314;2023-01-25T05:29:00;102344.58;;;-3.25;100.00
36454;BME280;22478;51.740;-1.314;2023-01-25T05:31:27;102339.65;;;-3.76;100.00
36454;BME280;22478;51.740;-1.314;2023-01-25T05:33:54;102326.72;;;-2.65;100.00
36454;BME280;22478;51.740;-1.314;2023-01-25T05:36:21;102322.89;;;-2.81;100.00
36454;BME280;22478;51.740;-1.314;2023-01-25T05:38:48;102317.14;;;-3.12;100.00
36454;BME280;22478;51.740;-1.314;2023-01-25T05:41:16;102316.20;;;-3.03;100.00
36454;BME280;22478;51.740;-1.314;2023-01-25T05:43:46;102314.71;;;-4.17;100.00
36454;BME280;22478;51.740;-1.314;2023-01-25T05:46:13;102310.93;;;-3.56;100.00
36454;BME280;22478;51.740;-1.314;2023-01-25T05:48:41;102305.22;;;-3.74;100.00
36454;BME280;22478;51.740;-1.314;2023-01-25T05:51:08;102298.57;;;-4.06;100.00
36454;BME280;22478;51.740;-1.314;2023-01-25T05:53:36;102299.06;;;-3.87;100.00
36454;BME280;22478;51.740;-1.314;2023-01-25T05:56:03;102297.01;;;-4.45;100.00
36454;BME280;22478;51.740;-1.314;2023-01-25T05:58:31;102293.75;;;-4.36;100.00
36454;BME280;22478;51.740;-1.314;2023-01-25T06:00:59;102292.33;;;-4.36;100.00
36454;BME280;22478;51.740;-1.314;2023-01-25T06:03:26;102296.27;;;-4.81;100.00
36454;BME280;22478;51.740;-1.314;2023-01-25T06:05:54;102295.54;;;-4.77;100.00
36454;BME280;22478;51.740;-1.314;2023-01-25T06:08:22;102287.04;;;-4.48;100.00
36454;BME280;22478;51.740;-1.314;2023-01-25T06:10:50;102285.92;;;-4.75;100.00
36454;BME280;22478;51.740;-1.314;2023-01-25T06:13:17;102287.68;;;-5.39;100.00
36454;BME280;22478;51.740;-1.314;2023-01-25T06:15:51;102290.18;;;-4.64;100.00
36454;BME280;22478;51.740;-1.314;2023-01-25T06:18:18;102288.72;;;-5.36;100.00
36454;BME280;22478;51.740;-1.314;2023-01-25T06:20:46;102284.83;;;-5.87;100.00
36454;BME280;22478;51.740;-1.314;2023-01-25T06:23:13;102278.07;;;-4.72;100.00
36454;BME280;22478;51.740;-1.314;2023-01-25T06:25:41;102276.15;;;-4.45;100.00
36454;BME280;22478;51.740;-1.314;2023-01-25T06:28:08;102278.60;;;-4.68;100.00
36454;BME280;22478;51.740;-1.314;2023-01-25T06:30:36;102276.14;;;-4.86;100.00
36454;BME280;22478;51.740;-1.314;2023-01-25T06:33:03;102279.96;;;-6.01;100.00
36454;BME280;22478;51.740;-1.314;2023-01-25T06:35:32;102280.72;;;-6.99;100.00
36454;BME280;22478;51.740;-1.314;2023-01-25T06:37:59;102273.24;;;-4.80;100.00
36454;BME280;22478;51.740;-1.314;2023-01-25T06:40:28;102271.65;;;-3.77;100.00
36454;BME280;22478;51.740;-1.314;2023-01-25T06:42:59;102271.55;;;-4.32;100.00
36454;BME280;22478;51.740;-1.314;2023-01-25T06:45:31;102282.23;;;-7.31;100.00
36454;BME280;22478;51.740;-1.314;2023-01-25T06:47:59;102275.75;;;-6.52;100.00
36454;BME280;22478;51.740;-1.314;2023-01-25T06:50:26;102269.97;;;-5.70;100.00
36454;BME280;22478;51.740;-1.314;2023-01-25T06:52:54;102269.83;;;-4.72;100.00
36454;BME280;22478;51.740;-1.314;2023-01-25T06:55:21;102269.00;;;-5.97;100.00
36454;BME280;22478;51.740;-1.314;2023-01-25T06:57:49;102269.59;;;-4.86;100.00
36454;BME280;22478;51.740;-1.314;2023-01-25T07:00:17;102269.22;;;-4.45;100.00
36454;BME280;22478;51.740;-1.314;2023-01-25T07:02:45;102267.47;;;-6.86;100.00
36454;BME280;22478;51.740;-1.314;2023-01-25T07:05:12;102263.20;;;-6.60;100.00
36454;BME280;22478;51.740;-1.314;2023-01-25T07:07:43;102262.87;;;-4.91;100.00
36454;BME280;22478;51.740;-1.314;2023-01-25T07:10:11;102258.72;;;-3.55;100.00
36454;BME280;22478;51.740;-1.314;2023-01-25T07:12:39;102251.87;;;-2.87;100.00
36454;BME280;22478;51.740;-1.314;2023-01-25T07:15:07;102259.40;;;-5.75;100.00
36454;BME280;22478;51.740;-1.314;2023-01-25T07:17:34;102240.88;;;-3.08;100.00
36454;BME280;22478;51.740;-1.314;2023-01-25T07:20:01;102248.40;;;-5.70;100.00
36454;BME280;22478;51.740;-1.314;2023-01-25T07:22:28;102245.04;;;-3.96;100.00
36454;BME280;22478;51.740;-1.314;2023-01-25T07:24:55;102248.66;;;-5.50;100.00
36454;BME280;22478;51.740;-1.314;2023-01-25T07:27:22;102236.55;;;-2.18;100.00
36454;BME280;22478;51.740;-1.314;2023-01-25T07:29:50;102237.48;;;-2.46;100.00
36454;BME280;22478;51.740;-1.314;2023-01-25T07:32:17;102239.47;;;-3.22;100.00
36454;BME280;22478;51.740;-1.314;2023-01-25T07:34:44;102243.27;;;-3.52;100.00
36454;BME280;22478;51.740;-1.314;2023-01-25T07:37:11;102243.75;;;-4.16;100.00
36454;BME280;22478;51.740;-1.314;2023-01-25T07:39:38;102237.81;;;-2.76;100.00
36454;BME280;22478;51.740;-1.314;2023-01-25T07:42:05;102238.84;;;-2.35;100.00
36454;BME280;22478;51.740;-1.314;2023-01-25T07:44:32;102239.53;;;-2.14;100.00
36454;BME280;22478;51.740;-1.314;2023-01-25T07:46:59;102241.78;;;-2.48;100.00
36454;BME280;22478;51.740;-1.314;2023-01-25T07:49:26;102241.26;;;-3.50;100.00
36454;BME280;22478;51.740;-1.314;2023-01-25T07:51:52;102245.04;;;-3.76;100.00
36454;BME280;22478;51.740;-1.314;2023-01-25T07:54:20;102254.07;;;-5.07;100.00
36454;BME280;22478;51.740;-1.314;2023-01-25T07:56:47;102254.91;;;-4.91;100.00
36454;BME280;22478;51.740;-1.314;2023-01-25T07:59:14;102251.16;;;-4.88;100.00
36454;BME280;22478;51.740;-1.314;2023-01-25T08:01:41;102252.77;;;-6.71;100.00
36454;BME280;22478;51.740;-1.314;2023-01-25T08:04:08;102240.38;;;-4.39;100.00
36454;BME280;22478;51.740;-1.314;2023-01-25T08:06:36;102240.61;;;-4.63;100.00
36454;BME280;22478;51.740;-1.314;2023-01-25T08:09:07;102242.41;;;-4.74;100.00
36454;BME280;22478;51.740;-1.314;2023-01-25T08:11:34;102230.42;;;-2.76;100.00
36454;BME280;22478;51.740;-1.314;2023-01-25T08:14:02;102237.03;;;-7.56;100.00
36454;BME280;22478;51.740;-1.314;2023-01-25T08:16:30;102221.12;;;-4.12;100.00
36454;BME280;22478;51.740;-1.314;2023-01-25T08:18:59;102223.02;;;-4.65;100.00
36454;BME280;22478;51.740;-1.314;2023-01-25T08:21:27;102224.99;;;-5.18;100.00
36454;BME280;22478;51.740;-1.314;2023-01-25T08:23:56;102221.54;;;-5.66;100.00
36454;BME280;22478;51.740;-1.314;2023-01-25T08:26:23;102216.31;;;-4.23;100.00
36454;BME280;22478;51.740;-1.314;2023-01-25T08:28:52;102205.55;;;-2.23;100.00
36454;BME280;22478;51.740;-1.314;2023-01-25T08:31:21;102198.13;;;-1.80;100.00
36454;BME280;22478;51.740;-1.314;2023-01-25T08:33:49;102210.50;;;-3.25;100.00
36454;BME280;22478;51.740;-1.314;2023-01-25T08:36:18;102209.63;;;-4.97;100.00
36454;BME280;22478;51.740;-1.314;2023-01-25T08:38:46;102202.58;;;-3.11;100.00
36454;BME280;22478;51.740;-1.314;2023-01-25T08:41:15;102199.65;;;-2.47;100.00
36454;BME280;22478;51.740;-1.314;2023-01-25T08:43:44;102195.05;;;-3.78;100.00
36454;BME280;22478;51.740;-1.314;2023-01-25T08:46:12;102194.45;;;-4.47;100.00
36454;BME280;22478;51.740;-1.314;2023-01-25T08:48:40;102195.89;;;-5.43;100.00
36454;BME280;22478;51.740;-1.314;2023-01-25T08:51:08;102186.79;;;-4.43;100.00
36454;BME280;22478;51.740;-1.314;2023-01-25T08:53:37;102180.85;;;-3.64;100.00
36454;BME280;22478;51.740;-1.314;2023-01-25T08:56:06;102186.92;;;-5.39;100.00
36454;BME280;22478;51.740;-1.314;2023-01-25T08:58:36;102183.65;;;-6.81;100.00
36454;BME280;22478;51.740;-1.314;2023-01-25T09:01:05;102164.51;;;-3.69;100.00
36454;BME280;22478;51.740;-1.314;2023-01-25T09:03:34;102162.83;;;-3.73;100.00
36454;BME280;22478;51.740;-1.314;2023-01-25T09:06:03;102163.26;;;-3.32;100.00
36454;BME280;22478;51.740;-1.314;2023-01-25T09:08:31;102174.93;;;-5.38;100.00
36454;BME280;22478;51.740;-1.314;2023-01-25T09:11:00;102148.38;;;-2.56;100.00
36454;BME280;22478;51.740;-1.314;2023-01-25T09:13:28;102158.73;;;-5.33;100.00
36454;BME280;22478;51.740;-1.314;2023-01-25T09:15:59;102139.47;;;-3.86;100.00
36454;BME280;22478;51.740;-1.314;2023-01-25T09:18:26;102147.55;;;-4.90;100.00
36454;BME280;22478;51.740;-1.314;2023-01-25T09:20:54;102141.32;;;-4.23;100.00
36454;BME280;22478;51.740;-1.314;2023-01-25T09:23:21;102136.13;;;-2.54;100.00
36454;BME280;22478;51.740;-1.314;2023-01-25T09:25:54;102128.20;;;-2.37;100.00
36454;BME280;22478;51.740;-1.314;2023-01-25T09:28:22;102130.63;;;-4.40;100.00
36454;BME280;22478;51.740;-1.314;2023-01-25T09:30:53;102130.86;;;-5.84;100.00
36454;BME280;22478;51.740;-1.314;2023-01-25T09:33:24;102124.67;;;-4.34;100.00
36454;BME280;22478;51.740;-1.314;2023-01-25T09:35:51;102110.93;;;-3.18;100.00
36454;BME280;22478;51.740;-1.314;2023-01-25T09:38:19;102103.29;;;-2.95;100.00
36454;BME280;22478;51.740;-1.314;2023-01-25T09:40:53;102095.91;;;-2.95;100.00
36454;BME280;22478;51.740;-1.314;2023-01-25T09:43:33;102101.06;;;-4.93;100.00
36454;BME280;22478;51.740;-1.314;2023-01-25T09:46:11;102102.64;;;-6.12;100.00
36454;BME280;22478;51.740;-1.314;2023-01-25T09:48:50;102098.84;;;-6.33;100.00
36454;BME280;22478;51.740;-1.314;2023-01-25T09:51:25;102081.95;;;-5.46;100.00
36454;BME280;22478;51.740;-1.314;2023-01-25T09:53:53;102070.70;;;-1.72;100.00
36454;BME280;22478;51.740;-1.314;2023-01-25T09:56:24;102065.77;;;-1.39;100.00
36454;BME280;22478;51.740;-1.314;2023-01-25T09:58:56;102054.86;;;-0.40;100.00
36454;BME280;22478;51.740;-1.314;2023-01-25T10:01:28;102054.93;;;-3.01;100.00
36454;BME280;22478;51.740;-1.314;2023-01-25T10:04:03;102057.99;;;-3.09;100.00
36454;BME280;22478;51.740;-1.314;2023-01-25T10:06:37;102066.09;;;-4.53;100.00
36454;BME280;22478;51.740;-1.314;2023-01-25T10:09:14;102050.42;;;-3.64;100.00
36454;BME280;22478;51.740;-1.314;2023-01-25T10:11:44;102052.56;;;-3.86;100.00
36454;BME280;22478;51.740;-1.314;2023-01-25T10:14:13;102037.20;;;-1.05;100.00
36454;BME280;22478;51.740;-1.314;2023-01-25T10:16:51;102022.42;;;0.29;100.00
36454;BME280;22478;51.740;-1.314;2023-01-25T10:19:27;102014.10;;;0.37;100.00
36454;BME280;22478;51.740;-1.314;2023-01-25T10:22:00;102014.95;;;-0.62;100.00
36454;BME280;22478;51.740;-1.314;2023-01-25T10:24:41;102027.83;;;-3.57;100.00
36454;BME280;22478;51.740;-1.314;2023-01-25T10:27:20;102027.50;;;-1.44;100.00
36454;BME280;22478;51.740;-1.314;2023-01-25T10:29:51;102023.76;;;0.73;100.00
36454;BME280;22478;51.740;-1.314;2023-01-25T10:32:24;102037.10;;;-5.00;100.00
36454;BME280;22478;51.740;-1.314;2023-01-25T10:34:55;102036.13;;;-4.09;100.00
36454;BME280;22478;51.740;-1.314;2023-01-25T10:37:26;102048.64;;;-6.96;100.00
36454;BME280;22478;51.740;-1.314;2023-01-25T10:39:57;102039.22;;;-3.98;100.00
36454;BME280;22478;51.740;-1.314;2023-01-25T10:42:30;102038.70;;;-4.52;100.00
36454;BME280;22478;51.740;-1.314;2023-01-25T10:44:59;102031.56;;;-2.56;100.00
36454;BME280;22478;51.740;-1.314;2023-01-25T10:47:30;102018.91;;;-1.95;100.00
36454;BME280;22478;51.740;-1.314;2023-01-25T10:49:59;102007.89;;;-2.64;100.00
36454;BME280;22478;51.740;-1.314;2023-01-25T10:52:27;101988.68;;;0.29;100.00
36454;BME280;22478;51.740;-1.314;2023-01-25T10:55:12;101990.57;;;-2.73;100.00
36454;BME280;22478;51.740;-1.314;2023-01-25T10:57:42;101970.07;;;-1.12;100.00
36454;BME280;22478;51.740;-1.314;2023-01-25T11:00:23;101962.58;;;-1.57;100.00
36454;BME280;22478;51.740;-1.314;2023-01-25T11:02:51;101954.12;;;-0.86;100.00
36454;BME280;22478;51.740;-1.314;2023-01-25T11:05:29;101953.65;;;-1.98;100.00
36454;BME280;22478;51.740;-1.314;2023-01-25T11:07:58;101946.05;;;-1.75;100.00
36454;BME280;22478;51.740;-1.314;2023-01-25T11:10:42;101959.55;;;-4.52;100.00
36454;BME280;22478;51.740;-1.314;2023-01-25T11:13:21;101964.47;;;-3.97;100.00
36454;BME280;22478;51.740;-1.314;2023-01-25T11:15:51;101971.99;;;-5.23;100.00
36454;BME280;22478;51.740;-1.314;2023-01-25T11:18:22;101966.76;;;-3.30;100.00
36454;BME280;22478;51.740;-1.314;2023-01-25T11:21:03;101964.02;;;-1.62;100.00
36454;BME280;22478;51.740;-1.314;2023-01-25T11:23:32;101949.78;;;-1.12;100.00
36454;BME280;22478;51.740;-1.314;2023-01-25T11:26:12;101939.76;;;-1.38;100.00
36454;BME280;22478;51.740;-1.314;2023-01-25T11:28:40;101927.50;;;0.23;100.00
36454;BME280;22478;51.740;-1.314;2023-01-25T11:31:11;101915.50;;;-0.03;100.00
36454;BME280;22478;51.740;-1.314;2023-01-25T11:33:39;101903.04;;;0.85;100.00
36454;BME280;22478;51.740;-1.314;2023-01-25T11:36:19;101919.82;;;-2.86;100.00
36454;BME280;22478;51.740;-1.314;2023-01-25T11:38:58;101919.80;;;-3.14;100.00
36454;BME280;22478;51.740;-1.314;2023-01-25T11:41:35;101930.41;;;-3.46;100.00
36454;BME280;22478;51.740;-1.314;2023-01-25T11:44:21;101944.81;;;-5.89;100.00
36454;BME280;22478;51.740;-1.314;2023-01-25T11:46:58;101947.84;;;-4.72;100.00
36454;BME280;22478;51.740;-1.314;2023-01-25T11:49:38;101937.54;;;-3.21;100.00
36454;BME280;22478;51.740;-1.314;2023-01-25T11:52:20;101934.58;;;-0.49;100.00
36454;BME280;22478;51.740;-1.314;2023-01-25T11:54:58;101954.90;;;-5.56;100.00
36454;BME280;22478;51.740;-1.314;2023-01-25T11:57:42;101952.51;;;-3.95;100.00
36454;BME280;22478;51.740;-1.314;2023-01-25T12:00:35;101948.38;;;-0.84;100.00
36454;BME280;22478;51.740;-1.314;2023-01-25T12:03:35;101957.55;;;-3.05;100.00
36454;BME280;22478;51.740;-1.314;2023-01-25T12:06:13;101956.54;;;-2.77;100.00
36454;BME280;22478;51.740;-1.314;2023-01-25T12:08:57;101947.12;;;-2.64;100.00
36454;BME280;22478;51.740;-1.314;2023-01-25T12:11:42;101959.74;;;-5.73;100.00
36454;BME280;22478;51.740;-1.314;2023-01-25T12:14:19;101951.92;;;-5.54;100.00
36454;BME280;22478;51.740;-1.314;2023-01-25T12:17:02;101960.35;;;-4.31;100.00
36454;BME280;22478;51.740;-1.314;2023-01-25T12:19:47;101969.46;;;-5.68;100.00
36454;BME280;22478;51.740;-1.314;2023-01-25T12:22:36;101937.96;;;-1.14;100.00
36454;BME280;22478;51.740;-1.314;2023-01-25T12:25:18;101925.87;;;-1.57;100.00
36454;BME280;22478;51.740;-1.314;2023-01-25T12:28:00;101927.69;;;-4.09;100.00
36454;BME280;22478;51.740;-1.314;2023-01-25T12:30:39;101933.62;;;-1.22;100.00
36454;BME280;22478;51.740;-1.314;2023-01-25T12:33:11;101914.32;;;-1.64;100.00
36454;BME280;22478;51.740;-1.314;2023-01-25T12:35:43;101919.00;;;-5.19;100.00
36454;BME280;22478;51.740;-1.314;2023-01-25T12:38:15;101910.97;;;-3.93;100.00
36454;BME280;22478;51.740;-1.314;2023-01-25T12:40:50;101919.83;;;-5.33;100.00
36454;BME280;22478;51.740;-1.314;2023-01-25T12:43:24;101915.09;;;-4.49;100.00
36454;BME280;22478;51.740;-1.314;2023-01-25T12:45:54;101919.17;;;-5.50;100.00